createdAt,value
2023-03-06T00:02:13.661Z,90.97
2023-03-06T00:07:15.526Z,90.82
2023-03-06T00:12:17.463Z,91.52
2023-03-06T00:17:19.287Z,91.36
2023-03-06T00:22:21.188Z,90.80
2023-03-06T00:27:23.144Z,90.87
2023-03-06T00:32:25.259Z,91.33
2023-03-06T00:37:27.230Z,91.12
2023-03-06T00:42:29.190Z,91.64
2023-03-06T00:47:31.134Z,90.85
2023-03-06T00:52:33.334Z,91.37
2023-03-06T00:57:35.283Z,90.34
2023-03-06T01:02:37.196Z,90.97
2023-03-06T01:07:39.081Z,90.72
2023-03-06T01:12:41.024Z,89.83
2023-03-06T01:17:42.997Z,90.38
2023-03-06T01:22:44.961Z,89.43
2023-03-06T01:27:46.931Z,89.26
2023-03-06T01:32:48.920Z,89.38
2023-03-06T01:37:50.865Z,88.90
2023-03-06T01:42:53.046Z,88.48
2023-03-06T01:47:54.948Z,88.41
2023-03-06T01:52:58.286Z,88.86
2023-03-06T01:58:02.207Z,88.66
2023-03-06T02:03:12.612Z,89.22
2023-03-06T02:08:16.846Z,89.38
2023-03-06T02:13:18.749Z,88.82
2023-03-06T02:18:20.806Z,88.88
2023-03-06T02:23:47.203Z,89.04
2023-03-06T02:28:49.103Z,88.73
2023-03-06T02:34:07.283Z,88.93
2023-03-06T02:39:09.131Z,89.54
2023-03-06T02:44:10.977Z,89.26
2023-03-06T02:49:12.983Z,88.99
2023-03-06T02:54:14.913Z,90.20
2023-03-06T02:59:16.824Z,90.69
2023-03-06T03:04:18.755Z,90.09
2023-03-06T03:09:20.685Z,90.80
2023-03-06T03:14:24.621Z,90.93
2023-03-06T03:19:26.596Z,91.51
2023-03-06T03:24:28.507Z,91.30
2023-03-06T03:29:30.548Z,92.12
2023-03-06T03:34:32.398Z,92.32
2023-03-06T03:39:34.335Z,92.98
2023-03-06T03:44:36.174Z,93.96
2023-03-06T03:49:38.181Z,93.56
2023-03-06T03:54:40.071Z,93.89
2023-03-06T03:59:42.019Z,93.77
2023-03-06T04:04:43.921Z,94.03
2023-03-06T04:09:45.889Z,94.55
2023-03-06T04:14:47.840Z,94.85
2023-03-06T04:19:49.853Z,95.00
2023-03-06T04:24:51.815Z,94.25
2023-03-06T04:29:53.718Z,94.93
2023-03-06T04:34:55.764Z,95.24
2023-03-06T04:39:57.684Z,94.84
2023-03-06T04:44:59.558Z,94.68
2023-03-06T04:50:01.547Z,95.15
2023-03-06T04:55:05.210Z,94.40
2023-03-06T05:00:09.083Z,94.79
2023-03-06T05:05:11.575Z,94.53
2023-03-06T05:10:15.158Z,94.35
2023-03-06T05:15:17.250Z,93.79
2023-03-06T05:20:19.149Z,93.79
2023-03-06T05:25:20.994Z,93.18
2023-03-06T05:30:23.145Z,93.29
2023-03-06T05:35:25.046Z,93.06
2023-03-06T05:40:26.936Z,92.59
2023-03-06T05:45:28.821Z,91.50
2023-03-06T05:50:30.898Z,91.12
2023-03-06T05:55:32.825Z,90.63
2023-03-06T06:00:34.700Z,89.27
2023-03-06T06:05:39.693Z,89.21
2023-03-06T06:10:41.632Z,88.30
2023-03-06T06:15:43.431Z,86.91
2023-03-06T06:20:45.352Z,85.21
2023-03-06T06:25:47.217Z,84.54
2023-03-06T06:30:49.178Z,84.99
2023-03-06T06:35:51.406Z,84.90
2023-03-06T06:41:26.807Z,84.10
2023-03-06T06:46:53.314Z,82.56
2023-03-06T06:51:40.473Z,81.36
2023-03-06T06:56:42.472Z,79.90
2023-03-06T07:01:44.605Z,79.15
2023-03-06T07:06:46.718Z,78.83
2023-03-06T07:11:48.670Z,79.41
2023-03-06T07:16:50.629Z,77.91
2023-03-06T07:21:52.509Z,79.89
2023-03-06T07:26:54.416Z,80.07
2023-03-06T07:31:56.413Z,79.32
2023-03-06T07:36:58.292Z,79.50
2023-03-06T07:42:00.210Z,78.96
2023-03-06T07:47:02.144Z,77.55
2023-03-06T07:52:04.161Z,76.39
2023-03-06T07:57:06.235Z,76.48
2023-03-06T08:02:09.797Z,75.81
2023-03-06T08:07:11.682Z,75.35
2023-03-06T08:12:15.709Z,75.29
2023-03-06T08:17:18.247Z,74.64
2023-03-06T08:22:20.197Z,75.05
2023-03-06T08:27:22.044Z,74.36
2023-03-06T08:32:23.952Z,74.68
2023-03-06T08:37:25.946Z,73.67
2023-03-06T08:42:27.907Z,74.71
2023-03-06T08:47:29.828Z,76.01
2023-03-06T08:52:31.746Z,75.11
2023-03-06T08:57:33.654Z,73.72
2023-03-06T09:02:35.612Z,73.46
2023-03-06T09:07:37.486Z,73.25
2023-03-06T09:12:49.418Z,71.75
2023-03-06T09:17:53.279Z,70.61
2023-03-06T09:22:55.230Z,70.67
2023-03-06T09:28:10.576Z,71.86
2023-03-06T09:33:13.454Z,72.12
2023-03-06T09:38:15.489Z,72.90
2023-03-06T09:43:21.159Z,72.55
2023-03-06T09:48:26.421Z,73.56
2023-03-06T09:53:31.315Z,75.54
2023-03-06T09:58:35.396Z,77.39
2023-03-06T10:03:48.074Z,76.59
2023-03-06T10:09:41.062Z,73.81
2023-03-06T10:14:49.087Z,71.74
2023-03-06T10:19:51.135Z,71.01
2023-03-06T10:24:58.885Z,70.19
2023-03-06T10:30:48.177Z,70.69
2023-03-06T10:35:51.497Z,69.71
2023-03-06T10:41:11.173Z,68.92
2023-03-06T10:46:13.918Z,70.11
2023-03-06T10:51:18.921Z,69.43
2023-03-06T10:56:53.355Z,69.28
2023-03-06T11:01:56.322Z,67.45
2023-03-06T11:07:24.626Z,64.51
2023-03-06T11:12:39.190Z,61.59
2023-03-06T11:18:00.659Z,58.03
2023-03-06T11:23:32.669Z,59.13
2023-03-06T11:28:40.925Z,59.46
2023-03-06T11:33:44.599Z,58.72
2023-03-06T11:38:54.508Z,58.33
2023-03-06T11:44:19.330Z,58.82
2023-03-06T11:49:33.122Z,61.07
2023-03-06T11:54:34.976Z,62.13
2023-03-06T11:59:56.657Z,62.42
2023-03-06T12:05:22.032Z,62.65
2023-03-06T12:10:49.061Z,59.05
2023-03-06T12:16:05.742Z,58.22
2023-03-06T12:21:11.674Z,57.34
2023-03-06T12:26:38.565Z,58.25
2023-03-06T12:31:57.878Z,58.73
2023-03-06T12:37:31.066Z,57.49
2023-03-06T12:42:47.268Z,57.52
2023-03-06T12:47:49.387Z,57.91
2023-03-06T12:52:52.681Z,58.19
2023-03-06T12:57:54.578Z,59.02
2023-03-06T13:03:32.249Z,58.98
2023-03-06T13:08:58.084Z,59.32
2023-03-06T13:14:00.031Z,60.17
2023-03-06T13:19:11.576Z,60.92
2023-03-06T13:24:43.801Z,62.04
2023-03-06T13:29:50.609Z,62.90
2023-03-06T13:34:52.431Z,62.84
2023-03-06T13:39:57.239Z,62.61
2023-03-06T13:45:19.469Z,62.46
2023-03-06T13:50:36.435Z,61.67
2023-03-06T13:56:01.439Z,60.73
2023-03-06T14:01:24.052Z,60.54
2023-03-06T14:06:35.064Z,59.77
2023-03-06T14:11:37.122Z,59.60
2023-03-06T14:16:49.380Z,59.53
2023-03-06T14:21:56.237Z,59.79
2023-03-06T14:26:58.412Z,60.33
2023-03-06T14:32:00.737Z,61.31
2023-03-06T14:37:03.778Z,62.37
2023-03-06T14:42:20.000Z,62.37
2023-03-06T14:47:32.272Z,62.83
2023-03-06T14:52:34.210Z,63.32
2023-03-06T14:57:36.051Z,64.43
2023-03-06T15:02:38.143Z,64.68
2023-03-06T15:07:40.035Z,65.32
2023-03-06T15:12:42.011Z,66.20
2023-03-06T15:17:45.400Z,66.25
2023-03-06T15:22:49.895Z,67.47
2023-03-06T15:27:53.736Z,73.42
2023-03-06T15:33:17.317Z,78.03
2023-03-06T15:38:45.729Z,80.00
2023-03-06T15:43:47.677Z,79.34
2023-03-06T15:48:57.198Z,79.78
2023-03-06T15:54:11.380Z,80.52
2023-03-06T15:59:23.648Z,81.59
2023-03-06T16:04:25.603Z,82.44
2023-03-06T16:09:27.509Z,82.96
2023-03-06T16:14:30.221Z,84.03
2023-03-06T16:19:31.859Z,85.13
2023-03-06T16:24:33.864Z,84.32
2023-03-06T16:29:37.222Z,85.98
2023-03-06T16:34:39.119Z,86.21
2023-03-06T16:39:41.117Z,87.56
2023-03-06T16:44:43.525Z,87.95
2023-03-06T16:49:45.432Z,89.07
2023-03-06T16:54:47.356Z,89.30
2023-03-06T16:59:49.336Z,89.61
2023-03-06T17:04:51.206Z,88.30
2023-03-06T17:09:53.080Z,89.22
2023-03-06T17:14:55.852Z,89.35
2023-03-06T17:19:58.054Z,89.25
2023-03-06T17:25:03.780Z,89.48
2023-03-06T17:30:08.241Z,88.39
2023-03-06T17:35:10.159Z,88.83
2023-03-06T17:40:12.548Z,87.95
2023-03-06T17:45:15.173Z,87.92
2023-03-06T17:50:17.266Z,88.26
2023-03-06T17:55:19.191Z,88.18
2023-03-06T18:00:21.557Z,87.72
2023-03-06T18:05:23.449Z,87.42
2023-03-06T18:10:25.471Z,87.14
2023-03-06T18:15:27.529Z,87.62
2023-03-06T18:20:29.636Z,87.54
2023-03-06T18:25:32.102Z,88.19
2023-03-06T18:30:37.903Z,88.21
2023-03-06T18:35:40.182Z,88.90
2023-03-06T18:40:42.343Z,89.05
2023-03-06T18:45:53.263Z,89.21
2023-03-06T18:50:55.230Z,89.78
2023-03-06T18:55:57.411Z,89.79
2023-03-06T19:00:59.803Z,89.17
2023-03-06T19:06:10.330Z,88.89
2023-03-06T19:11:16.391Z,89.17
2023-03-06T19:16:19.949Z,89.47
2023-03-06T19:21:22.810Z,89.89
2023-03-06T19:26:24.784Z,89.96
2023-03-06T19:31:27.673Z,89.75
2023-03-06T19:36:31.237Z,89.42
2023-03-06T19:41:34.430Z,89.31
2023-03-06T19:46:36.568Z,90.06
2023-03-06T19:51:38.560Z,89.56
2023-03-06T19:56:40.607Z,89.74
2023-03-06T20:01:42.664Z,90.47
2023-03-06T20:06:44.815Z,91.01
2023-03-06T20:11:46.825Z,90.25
2023-03-06T20:16:48.819Z,90.23
2023-03-06T20:21:50.811Z,88.59
2023-03-06T20:26:52.870Z,89.08
2023-03-06T20:31:55.736Z,88.30
2023-03-06T20:36:57.706Z,87.76
2023-03-06T20:41:59.656Z,87.31
2023-03-06T20:47:01.578Z,88.08
2023-03-06T20:52:03.593Z,88.00
2023-03-06T20:57:05.622Z,88.16
2023-03-06T21:02:09.628Z,88.33
2023-03-06T21:07:11.615Z,88.02
2023-03-06T21:12:13.506Z,88.20
2023-03-06T21:17:15.420Z,86.70
2023-03-06T21:22:17.483Z,86.22
2023-03-06T21:27:19.494Z,86.18
2023-03-06T21:32:21.424Z,85.95
2023-03-06T21:37:23.390Z,84.92
2023-03-06T21:42:25.415Z,85.20
2023-03-06T21:47:27.410Z,84.77
2023-03-06T21:52:29.861Z,84.07
2023-03-06T21:57:31.720Z,84.18
2023-03-06T22:02:33.645Z,83.70
2023-03-06T22:07:38.751Z,83.87
2023-03-06T22:12:43.546Z,83.51
2023-03-06T22:17:45.401Z,83.23
2023-03-06T22:22:47.325Z,83.16
2023-03-06T22:27:49.240Z,82.35
2023-03-06T22:32:52.942Z,83.03
2023-03-06T22:37:54.894Z,82.44
2023-03-06T22:42:56.895Z,82.44
2023-03-06T22:48:10.065Z,81.49
2023-03-06T22:53:12.906Z,81.18
2023-03-06T22:58:15.082Z,80.50
2023-03-06T23:03:17.018Z,81.35
2023-03-06T23:08:18.959Z,80.93
2023-03-06T23:13:20.933Z,80.29
2023-03-06T23:18:22.899Z,80.50
2023-03-06T23:23:25.461Z,80.44
2023-03-06T23:28:27.510Z,79.65
2023-03-06T23:33:29.467Z,79.48
2023-03-06T23:38:31.444Z,79.72
2023-03-06T23:43:33.649Z,79.38
2023-03-06T23:48:36.189Z,79.20
2023-03-06T23:53:37.899Z,78.62
2023-03-06T23:58:40.129Z,79.10
